sensor_id;sensor_type;location;lat;lon;timestamp;temperature;humidity
3360;DHT22;1693;49.602;11.046;2024-03-02T00:01:11;5.80;99.90
3360;DHT22;1693;49.602;11.046;2024-03-02T00:03:38;5.80;99.90
3360;DHT22;1693;49.602;11.046;2024-03-02T00:06:05;5.90;99.90
3360;DHT22;1693;49.602;11.046;2024-03-02T00:08:37;5.90;99.90
3360;DHT22;1693;49.602;11.046;2024-03-02T00:11:04;5.90;99.90
3360;DHT22;1693;49.602;11.046;2024-03-02T00:13:42;6.00;99.90
3360;DHT22;1693;49.602;11.046;2024-03-02T00:16:12;6.10;99.90
3360;DHT22;1693;49.602;11.046;2024-03-02T00:18:41;6.10;99.90
3360;DHT22;1693;49.602;11.046;2024-03-02T00:21:10;6.20;99.90
3360;DHT22;1693;49.602;11.046;2024-03-02T00:23:41;6.20;99.90
3360;DHT22;1693;49.602;11.046;2024-03-02T00:26:11;6.10;99.90
3360;DHT22;1693;49.602;11.046;2024-03-02T00:28:41;6.10;99.90
3360;DHT22;1693;49.602;11.046;2024-03-02T00:31:09;6.10;99.90
3360;DHT22;1693;49.602;11.046;2024-03-02T00:33:40;6.10;99.90
3360;DHT22;1693;49.602;11.046;2024-03-02T00:36:08;6.00;99.90
3360;DHT22;1693;49.602;11.046;2024-03-02T00:38:46;5.90;99.90
3360;DHT22;1693;49.602;11.046;2024-03-02T00:41:17;6.10;99.90
3360;DHT22;1693;49.602;11.046;2024-03-02T00:44:02;6.10;99.90
3360;DHT22;1693;49.602;11.046;2024-03-02T00:46:33;6.10;99.90
3360;DHT22;1693;49.602;11.046;2024-03-02T00:49:02;6.10;99.90
3360;DHT22;1693;49.602;11.046;2024-03-02T00:51:31;6.10;99.90
3360;DHT22;1693;49.602;11.046;2024-03-02T00:54:00;6.10;99.90
3360;DHT22;1693;49.602;11.046;2024-03-02T00:56:29;6.10;99.90
3360;DHT22;1693;49.602;11.046;2024-03-02T00:58:57;6.10;99.90
3360;DHT22;1693;49.602;11.046;2024-03-02T01:01:24;6.10;99.90
3360;DHT22;1693;49.602;11.046;2024-03-02T01:03:52;6.10;99.90
3360;DHT22;1693;49.602;11.046;2024-03-02T01:06:19;6.10;99.90
3360;DHT22;1693;49.602;11.046;2024-03-02T01:08:47;6.10;99.90
3360;DHT22;1693;49.602;11.046;2024-03-02T01:11:18;6.00;99.90
3360;DHT22;1693;49.602;11.046;2024-03-02T01:13:47;6.10;99.90
3360;DHT22;1693;49.602;11.046;2024-03-02T01:16:14;6.10;99.90
3360;DHT22;1693;49.602;11.046;2024-03-02T01:18:42;6.10;99.90
3360;DHT22;1693;49.602;11.046;2024-03-02T01:21:09;6.20;99.90
3360;DHT22;1693;49.602;11.046;2024-03-02T01:23:36;6.10;99.90
3360;DHT22;1693;49.602;11.046;2024-03-02T01:26:04;6.10;99.90
3360;DHT22;1693;49.602;11.046;2024-03-02T01:28:33;6.20;99.90
3360;DHT22;1693;49.602;11.046;2024-03-02T01:30:59;6.20;99.90
3360;DHT22;1693;49.602;11.046;2024-03-02T01:33:27;6.30;99.90
3360;DHT22;1693;49.602;11.046;2024-03-02T01:35:54;6.10;99.90
3360;DHT22;1693;49.602;11.046;2024-03-02T01:38:21;6.20;99.90
3360;DHT22;1693;49.602;11.046;2024-03-02T01:40:48;6.10;99.90
3360;DHT22;1693;49.602;11.046;2024-03-02T01:43:15;6.10;99.90
3360;DHT22;1693;49.602;11.046;2024-03-02T01:45:44;6.00;99.90
3360;DHT22;1693;49.602;11.046;2024-03-02T01:48:11;6.00;99.90
3360;DHT22;1693;49.602;11.046;2024-03-02T01:50:38;6.00;99.90
3360;DHT22;1693;49.602;11.046;2024-03-02T01:53:08;6.00;99.90
3360;DHT22;1693;49.602;11.046;2024-03-02T01:55:35;6.00;99.90
3360;DHT22;1693;49.602;11.046;2024-03-02T01:58:02;5.90;99.90
3360;DHT22;1693;49.602;11.046;2024-03-02T02:00:30;5.90;99.90
3360;DHT22;1693;49.602;11.046;2024-03-02T02:02:59;5.80;99.90
3360;DHT22;1693;49.602;11.046;2024-03-02T02:05:26;5.90;99.90
3360;DHT22;1693;49.602;11.046;2024-03-02T02:07:53;6.10;99.90
3360;DHT22;1693;49.602;11.046;2024-03-02T02:10:20;6.10;99.90
3360;DHT22;1693;49.602;11.046;2024-03-02T07:13:06;6.10;99.90
3360;DHT22;1693;49.602;11.046;2024-03-02T07:15:33;6.20;99.90
3360;DHT22;1693;49.602;11.046;2024-03-02T07:18:31;6.30;99.90
3360;DHT22;1693;49.602;11.046;2024-03-02T07:20:58;6.30;99.90
3360;DHT22;1693;49.602;11.046;2024-03-02T07:23:28;6.60;99.90
3360;DHT22;1693;49.602;11.046;2024-03-02T07:25:55;6.80;99.90
3360;DHT22;1693;49.602;11.046;2024-03-02T07:28:23;7.10;99.90
3360;DHT22;1693;49.602;11.046;2024-03-02T07:30:58;7.10;99.90
3360;DHT22;1693;49.602;11.046;2024-03-02T07:33:25;7.40;99.90
3360;DHT22;1693;49.602;11.046;2024-03-02T07:35:53;7.70;99.90
3360;DHT22;1693;49.602;11.046;2024-03-02T07:38:23;7.90;99.90
3360;DHT22;1693;49.602;11.046;2024-03-02T07:40:51;8.30;99.90
3360;DHT22;1693;49.602;11.046;2024-03-02T07:43:18;8.10;99.90
3360;DHT22;1693;49.602;11.046;2024-03-02T07:45:47;8.00;99.90
3360;DHT22;1693;49.602;11.046;2024-03-02T07:48:15;7.90;99.90
3360;DHT22;1693;49.602;11.046;2024-03-02T07:50:44;7.80;99.90
3360;DHT22;1693;49.602;11.046;2024-03-02T07:53:12;7.80;99.90
3360;DHT22;1693;49.602;11.046;2024-03-02T07:55:39;7.90;99.90
3360;DHT22;1693;49.602;11.046;2024-03-02T07:58:08;8.10;99.90
3360;DHT22;1693;49.602;11.046;2024-03-02T08:00:39;8.00;99.90
3360;DHT22;1693;49.602;11.046;2024-03-02T08:03:06;8.20;99.90
3360;DHT22;1693;49.602;11.046;2024-03-02T08:05:38;8.20;99.90
3360;DHT22;1693;49.602;11.046;2024-03-02T08:08:07;8.20;99.90
3360;DHT22;1693;49.602;11.046;2024-03-02T08:10:34;8.30;99.90
3360;DHT22;1693;49.602;11.046;2024-03-02T08:13:01;8.50;99.90
3360;DHT22;1693;49.602;11.046;2024-03-02T08:15:31;8.50;99.90
3360;DHT22;1693;49.602;11.046;2024-03-02T08:17:58;8.50;99.90
3360;DHT22;1693;49.602;11.046;2024-03-02T08:20:25;8.70;99.90
3360;DHT22;1693;49.602;11.046;2024-03-02T08:22:53;8.80;99.90
3360;DHT22;1693;49.602;11.046;2024-03-02T08:25:20;9.20;99.90
3360;DHT22;1693;49.602;11.046;2024-03-02T08:27:48;9.40;99.90
3360;DHT22;1693;49.602;11.046;2024-03-02T08:30:16;9.60;99.90
3360;DHT22;1693;49.602;11.046;2024-03-02T08:32:45;9.40;99.90
3360;DHT22;1693;49.602;11.046;2024-03-02T08:35:13;9.50;99.90
3360;DHT22;1693;49.602;11.046;2024-03-02T08:37:40;9.70;99.90
3360;DHT22;1693;49.602;11.046;2024-03-02T08:40:10;9.80;99.90
3360;DHT22;1693;49.602;11.046;2024-03-02T08:42:37;9.90;99.90
3360;DHT22;1693;49.602;11.046;2024-03-02T08:45:07;9.50;99.90
3360;DHT22;1693;49.602;11.046;2024-03-02T08:47:34;9.30;99.90
3360;DHT22;1693;49.602;11.046;2024-03-02T08:50:03;9.60;99.90
3360;DHT22;1693;49.602;11.046;2024-03-02T08:52:30;9.70;99.90
3360;DHT22;1693;49.602;11.046;2024-03-02T08:54:57;9.70;99.90
3360;DHT22;1693;49.602;11.046;2024-03-02T08:57:24;9.90;99.90
3360;DHT22;1693;49.602;11.046;2024-03-02T08:59:53;10.10;99.90
3360;DHT22;1693;49.602;11.046;2024-03-02T09:02:20;10.30;99.90
3360;DHT22;1693;49.602;11.046;2024-03-02T09:04:47;10.50;99.90
3360;DHT22;1693;49.602;11.046;2024-03-02T09:07:18;10.60;99.90
3360;DHT22;1693;49.602;11.046;2024-03-02T09:09:45;11.10;99.90
3360;DHT22;1693;49.602;11.046;2024-03-02T09:12:12;11.30;99.90
3360;DHT22;1693;49.602;11.046;2024-03-02T09:14:39;10.90;99.90
3360;DHT22;1693;49.602;11.046;2024-03-02T09:17:06;10.70;99.90
3360;DHT22;1693;49.602;11.046;2024-03-02T09:19:33;10.50;99.90
3360;DHT22;1693;49.602;11.046;2024-03-02T09:22:03;10.60;99.90
3360;DHT22;1693;49.602;11.046;2024-03-02T09:24:32;11.00;99.90
3360;DHT22;1693;49.602;11.046;2024-03-02T09:27:00;11.30;99.90
3360;DHT22;1693;49.602;11.046;2024-03-02T09:29:27;11.60;99.90
3360;DHT22;1693;49.602;11.046;2024-03-02T09:31:55;11.20;99.90
3360;DHT22;1693;49.602;11.046;2024-03-02T09:34:21;11.30;99.90
3360;DHT22;1693;49.602;11.046;2024-03-02T09:36:50;11.20;99.90
3360;DHT22;1693;49.602;11.046;2024-03-02T09:39:18;11.80;99.90
3360;DHT22;1693;49.602;11.046;2024-03-02T09:41:48;12.00;99.90
3360;DHT22;1693;49.602;11.046;2024-03-02T09:44:15;12.20;99.90
3360;DHT22;1693;49.602;11.046;2024-03-02T09:46:43;11.80;99.90
3360;DHT22;1693;49.602;11.046;2024-03-02T09:49:13;12.00;99.90
3360;DHT22;1693;49.602;11.046;2024-03-02T09:51:40;12.30;99.90
3360;DHT22;1693;49.602;11.046;2024-03-02T09:54:13;12.50;99.90
3360;DHT22;1693;49.602;11.046;2024-03-02T09:56:40;12.30;99.90
3360;DHT22;1693;49.602;11.046;2024-03-02T09:59:10;12.10;99.90
3360;DHT22;1693;49.602;11.046;2024-03-02T10:01:39;11.90;99.90
3360;DHT22;1693;49.602;11.046;2024-03-02T10:04:06;11.80;99.90
3360;DHT22;1693;49.602;11.046;2024-03-02T10:06:35;12.30;99.90
3360;DHT22;1693;49.602;11.046;2024-03-02T10:09:03;12.70;99.90
3360;DHT22;1693;49.602;11.046;2024-03-02T10:11:33;13.30;99.90
3360;DHT22;1693;49.602;11.046;2024-03-02T10:14:07;13.30;99.90
3360;DHT22;1693;49.602;11.046;2024-03-02T10:16:38;12.50;99.90
3360;DHT22;1693;49.602;11.046;2024-03-02T10:19:16;12.50;99.90
3360;DHT22;1693;49.602;11.046;2024-03-02T10:21:46;12.80;99.90
3360;DHT22;1693;49.602;11.046;2024-03-02T10:24:13;13.30;99.90
3360;DHT22;1693;49.602;11.046;2024-03-02T10:26:40;13.90;99.90
3360;DHT22;1693;49.602;11.046;2024-03-02T10:29:08;14.00;99.90
3360;DHT22;1693;49.602;11.046;2024-03-02T10:31:39;13.70;99.90
3360;DHT22;1693;49.602;11.046;2024-03-02T10:34:11;14.10;99.90
3360;DHT22;1693;49.602;11.046;2024-03-02T10:36:41;14.30;99.90
3360;DHT22;1693;49.602;11.046;2024-03-02T10:39:09;14.60;99.90
3360;DHT22;1693;49.602;11.046;2024-03-02T10:41:37;14.90;99.90
3360;DHT22;1693;49.602;11.046;2024-03-02T10:44:07;14.70;99.90
3360;DHT22;1693;49.602;11.046;2024-03-02T10:46:38;15.00;99.90
3360;DHT22;1693;49.602;11.046;2024-03-02T10:49:06;15.10;99.90
3360;DHT22;1693;49.602;11.046;2024-03-02T10:51:34;15.10;99.90
3360;DHT22;1693;49.602;11.046;2024-03-02T10:54:02;15.30;99.90
3360;DHT22;1693;49.602;11.046;2024-03-02T10:56:31;14.60;99.90
3360;DHT22;1693;49.602;11.046;2024-03-02T10:59:03;14.60;99.90
3360;DHT22;1693;49.602;11.046;2024-03-02T11:01:32;15.20;99.90
3360;DHT22;1693;49.602;11.046;2024-03-02T11:04:02;15.70;99.90
3360;DHT22;1693;49.602;11.046;2024-03-02T11:06:32;15.60;99.90
3360;DHT22;1693;49.602;11.046;2024-03-02T11:09:05;15.70;99.90
3360;DHT22;1693;49.602;11.046;2024-03-02T11:11:37;16.30;99.90
3360;DHT22;1693;49.602;11.046;2024-03-02T11:14:08;16.00;99.90
3360;DHT22;1693;49.602;11.046;2024-03-02T11:16:38;16.50;99.90
3360;DHT22;1693;49.602;11.046;2024-03-02T11:19:10;16.00;99.90
3360;DHT22;1693;49.602;11.046;2024-03-02T11:21:38;16.60;99.90
3360;DHT22;1693;49.602;11.046;2024-03-02T11:24:30;16.60;99.90
3360;DHT22;1693;49.602;11.046;2024-03-02T11:27:00;16.50;99.90
3360;DHT22;1693;49.602;11.046;2024-03-02T11:29:43;16.20;99.90
3360;DHT22;1693;49.602;11.046;2024-03-02T11:32:15;15.80;99.90
3360;DHT22;1693;49.602;11.046;2024-03-02T11:34:45;16.30;99.90
3360;DHT22;1693;49.602;11.046;2024-03-02T11:37:16;16.20;99.90
3360;DHT22;1693;49.602;11.046;2024-03-02T11:39:58;15.70;99.90
3360;DHT22;1693;49.602;11.046;2024-03-02T11:42:27;15.60;99.90
3360;DHT22;1693;49.602;11.046;2024-03-02T11:44:57;15.50;99.90
3360;DHT22;1693;49.602;11.046;2024-03-02T11:47:31;15.40;99.90
3360;DHT22;1693;49.602;11.046;2024-03-02T11:50:04;15.00;99.90
3360;DHT22;1693;49.602;11.046;2024-03-02T11:52:33;15.60;99.90
3360;DHT22;1693;49.602;11.046;2024-03-02T11:55:02;15.70;99.90
3360;DHT22;1693;49.602;11.046;2024-03-02T11:57:30;15.80;99.90
3360;DHT22;1693;49.602;11.046;2024-03-02T11:59:59;15.80;99.90
3360;DHT22;1693;49.602;11.046;2024-03-02T12:02:29;16.30;99.90
3360;DHT22;1693;49.602;11.046;2024-03-02T12:04:57;16.80;99.90
3360;DHT22;1693;49.602;11.046;2024-03-02T12:07:27;16.00;99.90
3360;DHT22;1693;49.602;11.046;2024-03-02T12:10:00;16.50;99.90
3360;DHT22;1693;49.602;11.046;2024-03-02T12:12:27;17.00;99.90
3360;DHT22;1693;49.602;11.046;2024-03-02T12:14:54;17.20;99.90
3360;DHT22;1693;49.602;11.046;2024-03-02T12:17:21;17.30;99.90
3360;DHT22;1693;49.602;11.046;2024-03-02T12:19:50;17.40;99.90
3360;DHT22;1693;49.602;11.046;2024-03-02T12:22:19;16.10;99.90
3360;DHT22;1693;49.602;11.046;2024-03-02T12:24:54;15.50;99.90
3360;DHT22;1693;49.602;11.046;2024-03-02T12:27:21;16.10;99.90
3360;DHT22;1693;49.602;11.046;2024-03-02T12:29:50;15.10;99.90
3360;DHT22;1693;49.602;11.046;2024-03-02T12:32:17;14.90;99.90
3360;DHT22;1693;49.602;11.046;2024-03-02T12:34:50;15.50;99.90
3360;DHT22;1693;49.602;11.046;2024-03-02T12:37:18;14.30;99.90
3360;DHT22;1693;49.602;11.046;2024-03-02T12:39:45;14.30;99.90
3360;DHT22;1693;49.602;11.046;2024-03-02T12:42:14;14.30;99.90
3360;DHT22;1693;49.602;11.046;2024-03-02T12:44:41;14.20;99.90
3360;DHT22;1693;49.602;11.046;2024-03-02T12:47:11;14.60;99.90
3360;DHT22;1693;49.602;11.046;2024-03-02T12:49:40;14.70;99.90
3360;DHT22;1693;49.602;11.046;2024-03-02T12:52:07;15.50;99.90
3360;DHT22;1693;49.602;11.046;2024-03-02T12:54:36;15.20;99.90
3360;DHT22;1693;49.602;11.046;2024-03-02T12:57:06;15.50;99.90
3360;DHT22;1693;49.602;11.046;2024-03-02T12:59:37;15.70;99.90
3360;DHT22;1693;49.602;11.046;2024-03-02T13:02:05;15.50;99.90
3360;DHT22;1693;49.602;11.046;2024-03-02T13:04:33;15.80;99.90
3360;DHT22;1693;49.602;11.046;2024-03-02T13:07:00;15.00;99.90
3360;DHT22;1693;49.602;11.046;2024-03-02T13:09:28;15.00;99.90
3360;DHT22;1693;49.602;11.046;2024-03-02T13:11:55;15.30;99.90
3360;DHT22;1693;49.602;11.046;2024-03-02T13:14:23;15.90;99.90
3360;DHT22;1693;49.602;11.046;2024-03-02T13:16:58;16.40;99.90
3360;DHT22;1693;49.602;11.046;2024-03-02T13:19:27;17.20;99.90
3360;DHT22;1693;49.602;11.046;2024-03-02T13:21:56;18.40;99.90
3360;DHT22;1693;49.602;11.046;2024-03-02T13:24:24;19.00;99.90
3360;DHT22;1693;49.602;11.046;2024-03-02T13:26:54;17.80;99.90
3360;DHT22;1693;49.602;11.046;2024-03-02T13:29:23;19.00;99.90
3360;DHT22;1693;49.602;11.046;2024-03-02T13:31:51;18.10;98.80
3360;DHT22;1693;49.602;11.046;2024-03-02T13:34:19;17.30;99.90
3360;DHT22;1693;49.602;11.046;2024-03-02T13:36:46;17.00;99.90
3360;DHT22;1693;49.602;11.046;2024-03-02T13:39:13;17.60;99.90
3360;DHT22;1693;49.602;11.046;2024-03-02T13:41:41;16.50;99.90
3360;DHT22;1693;49.602;11.046;2024-03-02T13:44:10;16.40;99.90
3360;DHT22;1693;49.602;11.046;2024-03-02T13:46:37;16.90;99.90
3360;DHT22;1693;49.602;11.046;2024-03-02T13:49:04;16.30;99.90
3360;DHT22;1693;49.602;11.046;2024-03-02T13:51:33;16.90;99.90
3360;DHT22;1693;49.602;11.046;2024-03-02T13:53:59;18.60;99.90
3360;DHT22;1693;49.602;11.046;2024-03-02T13:56:28;18.90;97.70
3360;DHT22;1693;49.602;11.046;2024-03-02T13:58:55;19.40;96.80
3360;DHT22;1693;49.602;11.046;2024-03-02T14:01:23;19.40;96.60
3360;DHT22;1693;49.602;11.046;2024-03-02T14:03:51;19.50;95.70
3360;DHT22;1693;49.602;11.046;2024-03-02T14:06:20;17.80;96.40
3360;DHT22;1693;49.602;11.046;2024-03-02T14:08:48;17.50;97.20
3360;DHT22;1693;49.602;11.046;2024-03-02T14:11:16;17.70;97.60
3360;DHT22;1693;49.602;11.046;2024-03-02T14:13:43;17.50;97.10
3360;DHT22;1693;49.602;11.046;2024-03-02T14:16:15;17.20;97.90
3360;DHT22;1693;49.602;11.046;2024-03-02T14:18:43;17.00;98.60
3360;DHT22;1693;49.602;11.046;2024-03-02T14:21:11;16.50;99.90
3360;DHT22;1693;49.602;11.046;2024-03-02T14:23:39;16.30;99.60
3360;DHT22;1693;49.602;11.046;2024-03-02T14:26:10;16.50;99.80
3360;DHT22;1693;49.602;11.046;2024-03-02T14:28:39;16.10;99.90
3360;DHT22;1693;49.602;11.046;2024-03-02T14:31:06;16.20;99.90
3360;DHT22;1693;49.602;11.046;2024-03-02T14:33:37;16.40;99.90
3360;DHT22;1693;49.602;11.046;2024-03-02T14:36:19;16.60;99.50
3360;DHT22;1693;49.602;11.046;2024-03-02T14:38:47;16.60;99.30
3360;DHT22;1693;49.602;11.046;2024-03-02T14:41:16;16.70;98.10
3360;DHT22;1693;49.602;11.046;2024-03-02T14:43:44;17.00;98.80
3360;DHT22;1693;49.602;11.046;2024-03-02T14:46:15;15.90;98.90
3360;DHT22;1693;49.602;11.046;2024-03-02T14:48:49;15.60;99.60
3360;DHT22;1693;49.602;11.046;2024-03-02T14:51:16;15.90;99.90
3360;DHT22;1693;49.602;11.046;2024-03-02T14:53:43;15.40;99.90
3360;DHT22;1693;49.602;11.046;2024-03-02T14:56:11;15.50;99.90
3360;DHT22;1693;49.602;11.046;2024-03-02T14:58:40;16.50;99.90
3360;DHT22;1693;49.602;11.046;2024-03-02T15:01:07;16.10;99.90
3360;DHT22;1693;49.602;11.046;2024-03-02T15:03:35;16.20;99.90
3360;DHT22;1693;49.602;11.046;2024-03-02T15:06:03;16.00;99.90
3360;DHT22;1693;49.602;11.046;2024-03-02T15:08:30;15.80;99.90
3360;DHT22;1693;49.602;11.046;2024-03-02T15:10:58;16.10;99.90
3360;DHT22;1693;49.602;11.046;2024-03-02T15:13:26;16.80;99.90
3360;DHT22;1693;49.602;11.046;2024-03-02T15:15:54;16.70;99.50
3360;DHT22;1693;49.602;11.046;2024-03-02T15:18:21;16.60;99.90
3360;DHT22;1693;49.602;11.046;2024-03-02T15:20:49;15.70;99.90
3360;DHT22;1693;49.602;11.046;2024-03-02T15:23:16;16.80;99.90
3360;DHT22;1693;49.602;11.046;2024-03-02T15:25:43;16.30;99.90
3360;DHT22;1693;49.602;11.046;2024-03-02T15:28:10;17.40;99.30
3360;DHT22;1693;49.602;11.046;2024-03-02T15:30:37;17.50;98.80
3360;DHT22;1693;49.602;11.046;2024-03-02T15:33:05;17.40;98.20
3360;DHT22;1693;49.602;11.046;2024-03-02T15:35:32;16.30;98.50
3360;DHT22;1693;49.602;11.046;2024-03-02T15:37:59;15.50;99.90
3360;DHT22;1693;49.602;11.046;2024-03-02T15:40:28;15.80;99.90
3360;DHT22;1693;49.602;11.046;2024-03-02T15:42:55;16.00;99.90
3360;DHT22;1693;49.602;11.046;2024-03-02T15:45:22;16.70;99.90
3360;DHT22;1693;49.602;11.046;2024-03-02T15:47:49;15.40;99.90
3360;DHT22;1693;49.602;11.046;2024-03-02T15:50:25;14.80;99.90
3360;DHT22;1693;49.602;11.046;2024-03-02T15:52:54;14.70;99.90
3360;DHT22;1693;49.602;11.046;2024-03-02T15:55:28;14.00;99.90
3360;DHT22;1693;49.602;11.046;2024-03-02T15:57:56;13.10;99.90
3360;DHT22;1693;49.602;11.046;2024-03-02T16:00:25;12.80;99.90
3360;DHT22;1693;49.602;11.046;2024-03-02T16:02:54;12.60;99.90
3360;DHT22;1693;49.602;11.046;2024-03-02T16:05:22;12.30;99.90
3360;DHT22;1693;49.602;11.046;2024-03-02T16:07:50;11.90;99.90
3360;DHT22;1693;49.602;11.046;2024-03-02T16:10:20;11.90;99.90
3360;DHT22;1693;49.602;11.046;2024-03-02T16:12:47;11.70;99.90
3360;DHT22;1693;49.602;11.046;2024-03-02T16:15:14;11.60;99.90
3360;DHT22;1693;49.602;11.046;2024-03-02T16:17:43;11.60;99.90
3360;DHT22;1693;49.602;11.046;2024-03-02T16:20:11;11.30;99.90
3360;DHT22;1693;49.602;11.046;2024-03-02T16:22:45;10.90;99.90
3360;DHT22;1693;49.602;11.046;2024-03-02T16:25:12;11.00;99.90
3360;DHT22;1693;49.602;11.046;2024-03-02T16:27:40;10.90;99.90
3360;DHT22;1693;49.602;11.046;2024-03-02T16:30:10;10.70;99.90
3360;DHT22;1693;49.602;11.046;2024-03-02T16:32:39;10.30;99.90
3360;DHT22;1693;49.602;11.046;2024-03-02T16:35:07;10.30;99.90
3360;DHT22;1693;49.602;11.046;2024-03-02T16:37:35;10.20;99.90
3360;DHT22;1693;49.602;11.046;2024-03-02T16:40:08;10.10;99.90
3360;DHT22;1693;49.602;11.046;2024-03-02T16:42:35;10.10;99.90
3360;DHT22;1693;49.602;11.046;2024-03-02T16:45:04;10.00;99.90
3360;DHT22;1693;49.602;11.046;2024-03-02T16:47:31;9.80;99.90
3360;DHT22;1693;49.602;11.046;2024-03-02T16:50:00;9.80;99.90
3360;DHT22;1693;49.602;11.046;2024-03-02T16:52:33;9.60;99.90
3360;DHT22;1693;49.602;11.046;2024-03-02T16:55:01;9.50;99.90
3360;DHT22;1693;49.602;11.046;2024-03-02T16:57:30;9.50;99.90
3360;DHT22;1693;49.602;11.046;2024-03-02T16:59:59;9.40;99.90
3360;DHT22;1693;49.602;11.046;2024-03-02T17:02:28;9.20;99.90
3360;DHT22;1693;49.602;11.046;2024-03-02T17:04:56;9.20;99.90
3360;DHT22;1693;49.602;11.046;2024-03-02T17:07:24;9.00;99.90
3360;DHT22;1693;49.602;11.046;2024-03-02T17:09:56;8.90;99.90
3360;DHT22;1693;49.602;11.046;2024-03-02T17:12:24;8.80;99.90
3360;DHT22;1693;49.602;11.046;2024-03-02T17:14:57;8.70;99.90
3360;DHT22;1693;49.602;11.046;2024-03-02T17:17:25;8.70;99.90
3360;DHT22;1693;49.602;11.046;2024-03-02T17:19:52;8.60;99.90
3360;DHT22;1693;49.602;11.046;2024-03-02T17:22:19;8.50;99.90
3360;DHT22;1693;49.602;11.046;2024-03-02T17:24:48;8.50;99.90
3360;DHT22;1693;49.602;11.046;2024-03-02T17:27:15;8.40;99.90
3360;DHT22;1693;49.602;11.046;2024-03-02T17:29:45;8.30;99.90
3360;DHT22;1693;49.602;11.046;2024-03-02T17:32:22;8.20;99.90
3360;DHT22;1693;49.602;11.046;2024-03-02T17:34:49;8.20;99.90
3360;DHT22;1693;49.602;11.046;2024-03-02T17:37:20;8.10;99.90
3360;DHT22;1693;49.602;11.046;2024-03-02T17:39:48;8.10;99.90
3360;DHT22;1693;49.602;11.046;2024-03-02T17:42:15;8.00;99.90
3360;DHT22;1693;49.602;11.046;2024-03-02T17:44:43;7.90;99.90
3360;DHT22;1693;49.602;11.046;2024-03-02T17:47:10;7.80;99.90
3360;DHT22;1693;49.602;11.046;2024-03-02T17:49:40;7.80;99.90
3360;DHT22;1693;49.602;11.046;2024-03-02T17:52:08;7.60;99.90
3360;DHT22;1693;49.602;11.046;2024-03-02T17:54:35;7.60;99.90
3360;DHT22;1693;49.602;11.046;2024-03-02T17:57:04;7.40;99.90
3360;DHT22;1693;49.602;11.046;2024-03-02T17:59:32;7.30;99.90
3360;DHT22;1693;49.602;11.046;2024-03-02T18:02:03;7.30;99.90
3360;DHT22;1693;49.602;11.046;2024-03-02T18:04:32;7.20;99.90
3360;DHT22;1693;49.602;11.046;2024-03-02T18:07:00;7.10;99.90
3360;DHT22;1693;49.602;11.046;2024-03-02T18:09:27;7.10;99.90
3360;DHT22;1693;49.602;11.046;2024-03-02T18:11:54;7.00;99.90
3360;DHT22;1693;49.602;11.046;2024-03-02T18:14:21;6.90;99.90
3360;DHT22;1693;49.602;11.046;2024-03-02T18:16:48;7.00;99.90
3360;DHT22;1693;49.602;11.046;2024-03-02T18:19:18;6.90;99.90
3360;DHT22;1693;49.602;11.046;2024-03-02T18:21:50;7.00;99.90
3360;DHT22;1693;49.602;11.046;2024-03-02T18:24:20;6.90;99.90
3360;DHT22;1693;49.602;11.046;2024-03-02T18:26:50;6.90;99.90
3360;DHT22;1693;49.602;11.046;2024-03-02T18:29:17;6.90;99.90
3360;DHT22;1693;49.602;11.046;2024-03-02T18:31:44;6.90;99.90
3360;DHT22;1693;49.602;11.046;2024-03-02T18:34:12;6.90;99.90
3360;DHT22;1693;49.602;11.046;2024-03-02T18:36:39;6.90;99.90
3360;DHT22;1693;49.602;11.046;2024-03-02T18:39:06;6.90;99.90
3360;DHT22;1693;49.602;11.046;2024-03-02T18:41:35;7.00;99.90
3360;DHT22;1693;49.602;11.046;2024-03-02T18:44:03;7.00;99.90
3360;DHT22;1693;49.602;11.046;2024-03-02T18:46:30;7.10;99.90
3360;DHT22;1693;49.602;11.046;2024-03-02T18:48:58;7.10;99.90
3360;DHT22;1693;49.602;11.046;2024-03-02T18:51:28;7.20;99.90
3360;DHT22;1693;49.602;11.046;2024-03-02T18:53:56;7.20;99.90
3360;DHT22;1693;49.602;11.046;2024-03-02T18:56:23;7.10;99.90
3360;DHT22;1693;49.602;11.046;2024-03-02T18:58:53;6.90;99.90
3360;DHT22;1693;49.602;11.046;2024-03-02T19:01:22;6.90;99.90
3360;DHT22;1693;49.602;11.046;2024-03-02T19:03:50;6.70;99.90
3360;DHT22;1693;49.602;11.046;2024-03-02T19:06:17;6.60;99.90
3360;DHT22;1693;49.602;11.046;2024-03-02T19:08:44;6.50;99.90
3360;DHT22;1693;49.602;11.046;2024-03-02T19:11:14;6.50;99.90
3360;DHT22;1693;49.602;11.046;2024-03-02T19:13:41;6.40;99.90
3360;DHT22;1693;49.602;11.046;2024-03-02T19:16:12;6.50;99.90
3360;DHT22;1693;49.602;11.046;2024-03-02T19:18:39;6.40;99.90
3360;DHT22;1693;49.602;11.046;2024-03-02T19:21:07;6.50;99.90
3360;DHT22;1693;49.602;11.046;2024-03-02T19:23:34;6.40;99.90
3360;DHT22;1693;49.602;11.046;2024-03-02T19:26:02;6.50;99.90
3360;DHT22;1693;49.602;11.046;2024-03-02T19:28:29;6.60;99.90
3360;DHT22;1693;49.602;11.046;2024-03-02T19:30:56;6.60;99.90
3360;DHT22;1693;49.602;11.046;2024-03-02T19:33:25;6.60;99.90
3360;DHT22;1693;49.602;11.046;2024-03-02T19:35:52;6.60;99.90
3360;DHT22;1693;49.602;11.046;2024-03-02T19:38:21;6.50;99.90
3360;DHT22;1693;49.602;11.046;2024-03-02T19:40:50;6.40;99.90
3360;DHT22;1693;49.602;11.046;2024-03-02T19:43:17;6.40;99.90
3360;DHT22;1693;49.602;11.046;2024-03-02T19:45:46;6.40;99.90
3360;DHT22;1693;49.602;11.046;2024-03-02T19:48:13;6.40;99.90
3360;DHT22;1693;49.602;11.046;2024-03-02T19:50:44;6.40;99.90
3360;DHT22;1693;49.602;11.046;2024-03-02T19:53:12;6.40;99.90
3360;DHT22;1693;49.602;11.046;2024-03-02T19:55:40;6.40;99.90
3360;DHT22;1693;49.602;11.046;2024-03-02T19:58:09;6.30;99.90
3360;DHT22;1693;49.602;11.046;2024-03-02T20:00:36;6.30;99.90
3360;DHT22;1693;49.602;11.046;2024-03-02T20:03:05;6.30;99.90
3360;DHT22;1693;49.602;11.046;2024-03-02T20:05:32;6.30;99.90
3360;DHT22;1693;49.602;11.046;2024-03-02T20:08:00;6.40;99.90
3360;DHT22;1693;49.602;11.046;2024-03-02T20:10:31;6.50;99.90
3360;DHT22;1693;49.602;11.046;2024-03-02T20:12:59;6.60;99.90
3360;DHT22;1693;49.602;11.046;2024-03-02T20:15:30;6.50;99.90
3360;DHT22;1693;49.602;11.046;2024-03-02T20:17:58;6.60;99.90
3360;DHT22;1693;49.602;11.046;2024-03-02T20:20:26;6.50;99.90
3360;DHT22;1693;49.602;11.046;2024-03-02T20:22:53;6.50;99.90
3360;DHT22;1693;49.602;11.046;2024-03-02T20:25:21;6.40;99.90
3360;DHT22;1693;49.602;11.046;2024-03-02T20:27:48;6.30;99.90
3360;DHT22;1693;49.602;11.046;2024-03-02T20:30:15;6.30;99.90
3360;DHT22;1693;49.602;11.046;2024-03-02T20:32:42;6.20;99.90
3360;DHT22;1693;49.602;11.046;2024-03-02T20:35:10;6.20;99.90
3360;DHT22;1693;49.602;11.046;2024-03-02T20:37:37;6.20;99.90
3360;DHT22;1693;49.602;11.046;2024-03-02T20:40:05;6.30;99.90
3360;DHT22;1693;49.602;11.046;2024-03-02T20:42:34;6.30;99.90
3360;DHT22;1693;49.602;11.046;2024-03-02T20:45:01;6.30;99.90
3360;DHT22;1693;49.602;11.046;2024-03-02T20:47:29;6.40;99.90
3360;DHT22;1693;49.602;11.046;2024-03-02T20:49:59;6.40;99.90
3360;DHT22;1693;49.602;11.046;2024-03-02T20:52:43;6.40;99.90
3360;DHT22;1693;49.602;11.046;2024-03-02T20:55:25;6.40;99.90
3360;DHT22;1693;49.602;11.046;2024-03-02T20:57:54;6.30;99.90
3360;DHT22;1693;49.602;11.046;2024-03-02T21:00:21;6.30;99.90
3360;DHT22;1693;49.602;11.046;2024-03-02T21:02:49;6.30;99.90
3360;DHT22;1693;49.602;11.046;2024-03-02T21:05:16;6.30;99.90